Flight Track Log - Related Links

Times and Time Zones

All times are in EDT time to prevent confusion due to time zone crossing. See the EGF4094 flight status page for this flight to view local times or setup timezone preferences in your user account.

Time Position Orientation Groundspeed Altitude Reporting Facility
EDT Latitude Longitude Course Direction KTS MPH feet Rate Location/Type
Sun 09:01:16 PM 41.9333 -87.9000 90° East 188 216 2,400  Level Chicago TRACON
Sun 09:02:16 PM 41.9167 -87.8167 105° East 218 251 4,900 2,263 Climbing Chicago TRACON
Sun 09:03:00 PM 41.9602 -87.4684 98° East  Level FlightAware Approximate
Sun 09:03:10 PM 41.9167 -87.7333 90° East 268 308 6,700  Level Chicago TRACON
Sun 09:04:00 PM 41.9471 -87.3254 95° East  Level FlightAware Approximate
Sun 09:04:22 PM 41.9219 -87.6244 86° East 277 319 9,300  Level Chicago Center
Sun 09:05:00 PM 41.9369 -87.1821 95° East  Level FlightAware Approximate
Sun 09:05:23 PM 41.9292 -87.5153 85° East 292 336 11,100  Level Chicago Center
Sun 09:06:00 PM 41.9333 -87.0529 90° East  Level FlightAware Approximate
Sun 09:06:24 PM 41.9303 -87.3939 89° East 319 367 13,200  Level Chicago Center
Sun 09:07:26 PM 41.9358 -87.2642 87° East 352 405 14,200 976 Climbing Chicago Center
Sun 09:08:27 PM 41.9203 -87.1236 98° East 377 434 15,200 1,131 Climbing Chicago Center
Sun 09:09:28 PM 41.9033 -86.9528 98° East 387 445 16,500 1,131 Climbing Chicago Center
Sun 09:10:29 PM 41.8881 -86.8039 98° East 395 455 17,500 836 Climbing Chicago Center
Sun 09:11:30 PM 41.8714 -86.6483 98° East 417 480 18,200 885 Climbing Chicago Center
Sun 09:12:31 PM 41.8547 -86.4883 98° East 432 497 19,300 1,033 Climbing Chicago Center
Sun 09:13:32 PM 41.8367 -86.3236 98° East 441 507 20,300 984 Climbing Chicago Center
Sun 09:14:33 PM 41.8192 -86.1575 98° East 448 516 21,300 984 Climbing Chicago Center
Sun 09:15:34 PM 41.8003 -85.9869 98° East 459 528 22,300 984 Climbing Chicago Center
Sun 09:16:35 PM 41.7814 -85.8183 98° East 460 529 23,300 984 Climbing Chicago Center
Sun 09:17:36 PM 41.7619 -85.6472 99° East 462 532 24,300 836 Climbing Chicago Center
Sun 09:18:37 PM 41.6844 -85.5189 129° Southeast 460 529 25,000 344 Climbing Chicago Center
Sun 09:19:38 PM 41.5631 -85.4122 147° Southeast 463 533 25,000  Level Chicago Center
Sun 09:20:39 PM 41.4511 -85.3106 146° Southeast 482 555 25,000  Level Chicago Center
Sun 09:21:40 PM 41.3375 -85.2064 145° Southeast 494 568 25,000  Level Chicago Center
Sun 09:22:41 PM 41.2244 -85.1061 146° Southeast 494 568 25,000  Level Chicago Center
Sun 09:23:42 PM 41.1111 -85.0053 146° Southeast 491 565 25,000  Level Chicago Center
Sun 09:24:43 PM 40.9975 -84.9058 147° Southeast 491 565 25,000  Level Chicago Center
Sun 09:25:44 PM 40.8844 -84.8064 146° Southeast 490 564 25,000  Level Chicago Center
Sun 09:26:45 PM 40.8136 -84.6519 121° Southeast 497 572 25,000  Level Chicago Center
Sun 09:27:32 PM 40.7683 -84.5056 112° Southeast 493 567 25,000 -389 Level Indianapolis Center
Sun 09:28:33 PM 40.7167 -84.3375 112° Southeast 491 565 24,300 -1,636 Descending Indianapolis Center
Sun 09:29:33 PM 40.6653 -84.1708 112° Southeast 487 560 21,700 -2,579 Descending Indianapolis Center
Sun 09:30:34 PM 40.6153 -84.0139 113° Southeast 465 535 19,100 -2,361 Descending Indianapolis Center
Sun 09:31:35 PM 40.5692 -83.8694 113° Southeast 431 496 16,900 -2,311 Descending Indianapolis Center
Sun 09:32:36 PM 40.5253 -83.7294 112° Southeast 413 475 14,400 -2,324 Descending Indianapolis Center
Sun 09:33:26 PM 40.4869 -83.6156 114° Southeast 400 460 12,600 -1,691 Descending Indianapolis Center
Sun 09:34:26 PM 40.4444 -83.4786 112° Southeast 380 437 11,300 -992 Descending Indianapolis Center
Sun 09:35:27 PM 40.3808 -83.3722 128° Southeast 366 421 10,600 -639 Descending Indianapolis Center
Sun 09:36:28 PM 40.3103 -83.2761 134° Southeast 373 429 10,000 -298 Descending Indianapolis Center
Sun 09:37:28 PM 40.2392 -83.1831 135° Southeast 364 419 10,000  Level Indianapolis Center
Sun 09:38:29 PM 40.1683 -83.0875 134° Southeast 361 415 10,000 -344 Level Indianapolis Center
Sun 09:39:30 PM 40.1442 -82.9808 106° East 288 331 9,300 -1,240 Descending Indianapolis Center
Sun 09:40:30 PM 40.1261 -82.8781 103° East 275 316 7,500 -1,800 Descending Indianapolis Center

Login

Don't have an account? Register now (free) for customized features, flight alerts, and more!